createdAt,value
2022-08-23T00:02:22.912Z,101329.53
2022-08-23T00:07:26.547Z,101334.03
2022-08-23T00:12:33.294Z,101327.47
2022-08-23T00:17:36.955Z,101320.50
2022-08-23T00:22:39.979Z,101316.75
2022-08-23T00:27:44.272Z,101317.75
2022-08-23T00:32:46.027Z,101307.59
2022-08-23T00:37:51.595Z,101299.13
2022-08-23T00:43:14.086Z,101301.06
2022-08-23T00:48:17.009Z,101291.06
2022-08-23T00:53:23.722Z,101298.81
2022-08-23T00:58:27.552Z,101303.16
2022-08-23T01:03:38.555Z,101295.38
2022-08-23T01:08:46.210Z,101301.63
2022-08-23T01:13:58.541Z,101290.00
2022-08-23T01:19:03.011Z,101289.78
2022-08-23T01:24:07.598Z,101298.63
2022-08-23T01:29:09.722Z,101297.09
2022-08-23T01:34:13.612Z,101288.88
2022-08-23T01:39:17.047Z,101295.16
2022-08-23T01:44:19.160Z,101299.72
2022-08-23T01:49:21.253Z,101290.94
2022-08-23T01:54:24.466Z,101291.84
2022-08-23T01:59:26.694Z,101294.56
2022-08-23T02:04:29.093Z,101292.25
2022-08-23T02:09:32.787Z,101296.53
2022-08-23T02:14:35.948Z,101290.44
2022-08-23T02:19:39.275Z,101287.09
2022-08-23T02:24:44.475Z,101282.75
2022-08-23T02:29:47.778Z,101294.34
2022-08-23T02:35:05.341Z,101284.28
2022-08-23T02:40:10.977Z,101281.47
2022-08-23T02:45:12.802Z,101293.16
2022-08-23T02:50:14.988Z,101292.38
2022-08-23T02:55:20.097Z,101298.22
2022-08-23T03:00:22.818Z,101299.59
2022-08-23T03:05:24.937Z,101299.66
2022-08-23T03:10:28.414Z,101299.75
2022-08-23T03:15:30.825Z,101296.97
2022-08-23T03:20:33.146Z,101307.06
2022-08-23T03:25:37.927Z,101308.72
2022-08-23T03:30:40.061Z,101318.72
2022-08-23T03:35:42.354Z,101328.03
2022-08-23T03:40:46.312Z,101329.19
2022-08-23T03:45:48.406Z,101327.53
2022-08-23T03:50:50.296Z,101327.44
2022-08-23T03:55:58.308Z,101326.41
2022-08-23T04:01:00.239Z,101314.47
2022-08-23T04:06:01.978Z,101321.53
2022-08-23T04:11:06.656Z,101323.41
2022-08-23T04:16:08.650Z,101326.78
2022-08-23T04:21:15.833Z,101328.13
2022-08-23T04:26:19.027Z,101337.41
2022-08-23T04:31:23.153Z,101333.84
2022-08-23T04:36:25.720Z,101335.50
2022-08-23T04:41:29.126Z,101345.50
2022-08-23T04:46:31.630Z,101343.59
2022-08-23T04:51:33.324Z,101358.00
2022-08-23T04:56:37.228Z,101357.81
2022-08-23T05:01:39.268Z,101349.09
2022-08-23T05:06:41.291Z,101362.34
2022-08-23T05:11:44.342Z,101363.13
2022-08-23T05:16:46.317Z,101362.66
2022-08-23T05:21:48.425Z,101361.53
2022-08-23T05:26:51.905Z,101372.78
2022-08-23T05:31:54.029Z,101377.63
2022-08-23T05:36:56.427Z,101385.38
2022-08-23T05:42:02.082Z,101388.28
2022-08-23T05:47:06.869Z,101379.19
2022-08-23T05:52:14.952Z,101384.88
2022-08-23T05:57:18.310Z,101387.84
2022-08-23T06:02:20.211Z,101389.66
2022-08-23T06:07:22.274Z,101395.53
2022-08-23T06:12:25.387Z,101395.75
2022-08-23T06:17:27.584Z,101392.34
2022-08-23T06:22:29.942Z,101388.22
2022-08-23T06:27:33.460Z,101383.00
2022-08-23T06:32:35.564Z,101394.41
2022-08-23T06:37:37.356Z,101396.47
2022-08-23T06:42:40.795Z,101390.72
2022-08-23T06:47:42.515Z,101399.69
2022-08-23T06:52:47.606Z,101404.53
2022-08-23T06:57:50.737Z,101410.13
2022-08-23T07:02:52.945Z,101408.91
2022-08-23T07:07:54.843Z,101408.25
2022-08-23T07:12:57.905Z,101415.63
2022-08-23T07:18:00.115Z,101414.56
2022-08-23T07:23:02.229Z,101410.53
2022-08-23T07:28:09.834Z,101416.50
2022-08-23T07:33:13.665Z,101426.06
2022-08-23T07:38:16.304Z,101420.22
2022-08-23T07:43:19.339Z,101421.63
2022-08-23T07:48:37.304Z,101414.31
2022-08-23T07:53:46.038Z,101422.22
2022-08-23T07:58:49.613Z,101420.84
2022-08-23T08:03:53.287Z,101411.13
2022-08-23T08:08:55.568Z,101428.34
2022-08-23T08:13:58.649Z,101425.47
2022-08-23T08:19:02.157Z,101426.00
2022-08-23T08:24:04.160Z,101432.28
2022-08-23T08:29:08.736Z,101430.28
2022-08-23T08:34:11.505Z,101432.78
2022-08-23T08:39:15.116Z,101441.78
2022-08-23T08:44:27.516Z,101443.16
2022-08-23T08:49:37.159Z,101448.03
2022-08-23T08:54:46.167Z,101441.56
2022-08-23T08:59:58.340Z,101441.41
2022-08-23T09:05:02.330Z,101429.63
2022-08-23T09:10:29.756Z,101433.78
2022-08-23T09:15:41.622Z,101436.41
2022-08-23T09:20:47.047Z,101430.97
2022-08-23T09:25:52.645Z,101427.56
2022-08-23T09:30:58.702Z,101431.22
2022-08-23T09:36:13.394Z,101438.03
2022-08-23T09:41:22.646Z,101439.41
2022-08-23T09:46:27.991Z,101428.63
2022-08-23T09:51:32.548Z,101431.53
2022-08-23T09:56:40.537Z,101424.03
2022-08-23T10:01:47.927Z,101425.28
2022-08-23T10:06:51.660Z,101431.63
2022-08-23T10:11:55.613Z,101426.44
2022-08-23T10:17:09.039Z,101426.41
2022-08-23T10:22:18.671Z,101425.19
2022-08-23T10:27:28.000Z,101412.91
2022-08-23T10:32:43.855Z,101421.91
2022-08-23T10:37:59.269Z,101429.34
2022-08-23T10:43:14.013Z,101424.59
2022-08-23T10:48:23.597Z,101429.97
2022-08-23T10:53:34.873Z,101430.56
2022-08-23T10:58:43.535Z,101418.63
2022-08-23T11:04:00.685Z,101408.88
2022-08-23T11:09:06.563Z,101408.72
2022-08-23T11:14:11.067Z,101413.84
2022-08-23T11:19:34.910Z,101407.69
2022-08-23T11:24:53.103Z,101410.13
2022-08-23T11:29:54.853Z,101423.72
2022-08-23T11:35:08.765Z,101415.47
2022-08-23T11:40:16.057Z,101424.00
2022-08-23T11:45:39.184Z,101423.16
2022-08-23T11:50:59.609Z,101417.38
2022-08-23T11:56:46.014Z,101427.50
2022-08-23T12:01:48.360Z,101425.94
2022-08-23T12:06:53.514Z,101434.91
2022-08-23T12:12:24.844Z,101428.81
2022-08-23T12:18:04.146Z,101422.91
2022-08-23T12:23:15.282Z,101420.25
2022-08-23T12:28:34.406Z,101418.47
2022-08-23T12:33:45.876Z,101418.16
2022-08-23T12:38:58.461Z,101415.69
2022-08-23T12:44:07.761Z,101410.25
2022-08-23T12:49:12.589Z,101410.91
2022-08-23T12:54:22.358Z,101395.63
2022-08-23T12:59:33.504Z,101399.72
2022-08-23T13:04:38.844Z,101398.94
2022-08-23T13:09:43.368Z,101400.09
2022-08-23T13:14:55.828Z,101390.69
2022-08-23T13:20:16.350Z,101397.78
2022-08-23T13:25:29.579Z,101384.03
2022-08-23T13:30:36.324Z,101385.44
2022-08-23T13:35:40.473Z,101388.34
2022-08-23T13:40:51.876Z,101388.19
2022-08-23T13:45:56.983Z,101386.25
2022-08-23T13:51:16.901Z,101390.84
2022-08-23T13:56:20.610Z,101389.06
2022-08-23T14:01:22.988Z,101381.69
2022-08-23T14:06:24.884Z,101383.09
2022-08-23T14:11:28.131Z,101377.69
2022-08-23T14:16:33.606Z,101373.41
2022-08-23T14:21:35.997Z,101377.31
2022-08-23T14:26:39.098Z,101371.94
2022-08-23T14:31:55.639Z,101369.50
2022-08-23T14:42:24.343Z,101356.94
2022-08-23T14:47:26.763Z,101360.13
2022-08-23T14:52:29.096Z,101365.38
2022-08-23T14:57:32.318Z,101357.94
2022-08-23T15:02:34.615Z,101367.53
2022-08-23T15:07:36.386Z,101358.06
2022-08-23T15:18:03.222Z,101349.63
2022-08-23T15:23:06.541Z,101361.09
2022-08-23T15:28:13.492Z,101354.84
2022-08-23T15:33:16.018Z,101359.56
2022-08-23T15:38:19.138Z,101351.66
2022-08-23T15:43:34.012Z,101350.50
2022-08-23T15:48:43.147Z,101353.34
2022-08-23T15:53:45.638Z,101353.81
2022-08-23T15:58:48.989Z,101347.16
2022-08-23T16:03:51.077Z,101346.81
2022-08-23T16:08:53.583Z,101349.00
2022-08-23T16:13:57.093Z,101348.66
2022-08-23T16:18:59.902Z,101345.66
2022-08-23T16:24:02.183Z,101345.13
2022-08-23T16:29:08.413Z,101332.00
2022-08-23T16:34:13.438Z,101338.66
2022-08-23T16:39:17.080Z,101344.78
2022-08-23T16:44:20.512Z,101342.44
2022-08-23T16:49:22.593Z,101355.09
2022-08-23T16:54:24.325Z,101355.63
2022-08-23T16:59:27.657Z,101359.25
2022-08-23T17:04:30.886Z,101340.84
2022-08-23T17:09:32.595Z,101359.50
2022-08-23T17:14:36.184Z,101363.28
2022-08-23T17:19:38.400Z,101363.75
2022-08-23T17:24:40.391Z,101378.56
2022-08-23T17:29:43.823Z,101375.00
2022-08-23T17:34:45.862Z,101374.22
2022-08-23T17:39:49.586Z,101375.94
2022-08-23T17:44:53.363Z,101392.19
2022-08-23T17:49:55.126Z,101396.69
2022-08-23T17:54:57.615Z,101396.16
2022-08-23T18:00:01.608Z,101410.97
2022-08-23T18:05:04.107Z,101423.53
2022-08-23T18:10:07.431Z,101427.81
2022-08-23T18:15:12.450Z,101430.28
2022-08-23T18:20:14.352Z,101435.25
2022-08-23T18:25:16.639Z,101444.19
2022-08-23T18:30:21.304Z,101446.59
2022-08-23T18:35:23.875Z,101452.25
2022-08-23T18:40:27.819Z,101455.63
2022-08-23T18:45:31.023Z,101457.09
2022-08-23T18:50:32.810Z,101462.94
2022-08-23T18:55:34.962Z,101469.56
2022-08-23T19:00:38.970Z,101466.38
2022-08-23T19:05:42.607Z,101484.59
2022-08-23T19:10:44.541Z,101488.09
2022-08-23T19:15:47.710Z,101483.84
2022-08-23T19:20:49.580Z,101478.25
2022-08-23T19:25:51.335Z,101489.81
2022-08-23T19:30:56.013Z,101496.56
2022-08-23T19:35:58.672Z,101505.19
2022-08-23T19:41:02.639Z,101509.25
2022-08-23T19:46:07.051Z,101517.94
2022-08-23T19:51:09.339Z,101516.56
2022-08-23T19:56:11.461Z,101516.13
2022-08-23T20:01:15.106Z,101504.19
2022-08-23T20:06:18.916Z,101523.22
2022-08-23T20:11:21.552Z,101527.22
2022-08-23T20:16:25.277Z,101515.19
2022-08-23T20:21:28.379Z,101532.38
2022-08-23T20:26:33.197Z,101532.84
2022-08-23T20:31:40.913Z,101544.00
2022-08-23T20:36:43.413Z,101541.69
2022-08-23T20:41:46.079Z,101541.06
2022-08-23T20:46:54.686Z,101547.44
2022-08-23T20:51:58.622Z,101544.97
2022-08-23T20:57:01.124Z,101550.56
2022-08-23T21:02:04.896Z,101545.50
2022-08-23T21:07:07.029Z,101542.22
2022-08-23T21:12:09.895Z,101550.41
2022-08-23T21:17:13.325Z,101540.81
2022-08-23T21:22:15.359Z,101541.06
2022-08-23T21:27:17.407Z,101544.03
2022-08-23T21:32:20.863Z,101543.25
2022-08-23T21:37:23.128Z,101548.81
2022-08-23T21:42:25.014Z,101549.06
2022-08-23T21:47:28.460Z,101541.16
2022-08-23T21:52:30.581Z,101531.81
2022-08-23T21:57:32.928Z,101545.31
2022-08-23T22:02:36.513Z,101541.97
2022-08-23T22:07:39.237Z,101545.81
2022-08-23T22:12:41.960Z,101542.50
2022-08-23T22:17:45.544Z,101534.53
2022-08-23T22:22:47.567Z,101537.34
2022-08-23T22:27:49.339Z,101533.91
2022-08-23T22:32:52.483Z,101540.47
2022-08-23T22:38:12.823Z,101540.66
2022-08-23T22:43:16.494Z,101531.81
2022-08-23T22:48:20.066Z,101541.81
2022-08-23T22:53:22.165Z,101542.81
2022-08-23T22:58:24.352Z,101540.34
2022-08-23T23:03:28.164Z,101545.03
2022-08-23T23:08:30.137Z,101538.16
2022-08-23T23:13:33.208Z,101539.94
2022-08-23T23:18:36.861Z,101539.25
2022-08-23T23:23:38.966Z,101538.38
2022-08-23T23:28:41.009Z,101534.97
2022-08-23T23:33:44.795Z,101534.19
2022-08-23T23:38:47.376Z,101539.63
2022-08-23T23:43:49.591Z,101539.81
2022-08-23T23:48:53.445Z,101533.63
2022-08-23T23:53:57.377Z,101531.00
2022-08-23T23:59:01.159Z,101541.00
